K5RG-3 Weather Reports


time (UTC)temp
C
wind
direction
speed
KPH
gust
KPH
rain 1hr
cm
rain 24hr
cm
rain mn
cm
humidity
%
barometer
mb
20240222114512 19 204 0.0 4.8 0.00 0.00 0.00 80 1011.5
20240222113012 19 212 0.0 9.7 0.00 0.00 0.00 80 1011.5
20240222111510 18 153 0.0 4.8 0.00 0.00 0.00 81 1011.1
20240222110011 18 211 0.0 8.0 0.00 0.00 0.00 81 1011.3
20240222104510 18 190 0.0 14.5 0.00 0.00 0.00 82 1011.1
20240222103010 18 206 0.0 16.1 0.00 0.00 0.00 82 1010.8
20240222101507 18 166 0.0 14.5 0.00 0.00 0.00 82 1011.0
20240222100009 18 195 0.0 12.9 0.00 0.00 0.00 83 1011.4
20240222094505 18 177 1.6 12.9 0.00 0.00 0.00 82 1011.3
20240222093001 18 184 0.0 4.8 0.00 0.00 0.00 82 1011.7
20240222091601 18 212 0.0 8.0 0.00 0.00 0.00 82 1012.0
20240222090057 18 162 0.0 22.5 0.00 0.00 0.00 81 1012.2
20240222084556 18 173 0.0 9.7 0.00 0.00 0.00 81 1012.5
20240222083059 18 166 0.0 9.7 0.00 0.00 0.00 81 1012.4
20240222081553 18 175 0.0 14.5 0.00 0.00 0.00 80 1012.5
20240222080100 18 224 0.0 14.5 0.00 0.00 0.00 80 1012.7
20240222074549 18 208 1.6 12.9 0.00 0.00 0.00 80 1012.9
20240222073048 18 169 0.0 8.0 0.00 0.00 0.00 80 1013.0
20240222071544 18 195 0.0 19.3 0.00 0.00 0.00 79 1013.3
20240222070042 19 181 1.6 17.7 0.00 0.00 0.00 78 1013.4
20240222064541 19 174 0.0 20.9 0.00 0.00 0.00 78 1013.6
20240222063051 19 200 4.8 27.4 0.00 0.00 0.00 77 1013.8
20240222061537 19 162 3.2 27.4 0.00 0.00 0.00 77 1013.7
20240222060037 20 136 0.0 29.0 0.00 0.00 0.00 76 1014.0
20240222054534 19 155 0.0 20.9 0.00 0.00 0.00 76 1013.8
20240222053033 19 190 11.3 33.8 0.00 0.00 0.00 76 1013.7
20240222051533 19 180 3.2 30.6 0.00 0.00 0.00 77 1013.5
20240222050045 18 125 6.4 35.4 0.00 0.00 0.00 78 1013.3
20240222044531 18 162 6.4 30.6 0.00 0.00 0.00 78 1013.3
20240222043029 18 160 4.8 29.0 0.00 0.00 0.00 79 1013.7
20240222041528 18 153 1.6 32.2 0.00 0.00 0.00 80 1013.5
20240222040028 19 154 3.2 25.7 0.00 0.00 0.00 80 1014.3
20240222034527 19 143 3.2 24.1 0.00 0.00 0.00 80 1014.6
20240222033027 19 168 4.8 29.0 0.00 0.00 0.00 81 1014.7
20240222031522 19 153 0.0 12.9 0.00 0.00 0.00 80 1015.1
20240222030022 18 150 1.6 17.7 0.00 0.00 0.00 80 1015.2
20240222024517 18 137 3.2 20.9 0.00 0.00 0.00 81 1015.2
20240222023016 18 120 4.8 20.9 0.00 0.00 0.00 81 1015.3
20240222021514 18 155 0.0 12.9 0.00 0.00 0.00 81 1015.8
20240222020012 18 177 0.0 20.9 0.00 0.00 0.00 81 1015.9
20240222014510 19 131 0.0 6.4 0.00 0.00 0.00 80 1016.2
20240222013009 19 190 0.0 3.2 0.00 0.00 0.00 80 1016.3
20240222011508 19 140 0.0 4.8 0.00 0.00 0.00 80 1016.2
20240222010010 19 156 0.0 4.8 0.00 0.00 0.00 79 1016.3
20240222004506 19 164 0.0 9.7 0.00 0.00 0.00 78 1016.2
20240222003005 20 184 0.0 19.3 0.00 0.00 0.00 77 1016.4
20240222001512 20 164 3.2 17.7 0.00 0.00 0.00 76 1016.4
20240222000007 20 133 0.0 25.7 0.00 0.00 0.00 75 1016.3
20240221234515 21 183 4.8 27.4 0.00 0.00 0.00 74 1016.2
20240221233004 21 190 4.8 29.0 0.00 0.00 0.00 73 1016.2
20240221231503 21 164 6.4 27.4 0.00 0.00 0.00 71 1016.1
20240221230002 21 124 3.2 30.6 0.00 0.00 0.00 70 1016.3
20240221224506 22 149 11.3 32.2 0.00 0.00 0.00 68 1016.2
20240221223002 22 142 6.4 33.8 0.00 0.00 0.00 68 1016.2
20240221221609 22 142 9.7 27.4 0.00 0.00 0.00 67 1016.2
20240221220105 22 170 12.9 32.2 0.00 0.00 0.00 68 1016.4
20240221214558 23 154 8.0 30.6 0.00 0.00 0.00 67 1016.5
20240221213102 23 139 4.8 33.8 0.00 0.00 0.00 67 1016.7
20240221211600 23 162 14.5 41.8 0.00 0.00 0.00 67 1017.0
20240221210134 23 176 1.6 29.0 0.00 0.00 0.00 68 1017.3
20240221204552 23 181 9.7 32.2 0.00 0.00 0.00 66 1017.4
20240221203057 23 151 4.8 25.7 0.00 0.00 0.00 66 1017.7
20240221201546 23 154 4.8 29.0 0.00 0.00 0.00 67 1018.0
20240221200044 23 152 8.0 32.2 0.00 0.00 0.00 66 1018.2
20240221194543 23 180 6.4 32.2 0.00 0.00 0.00 67 1018.5
20240221193049 23 168 17.7 40.2 0.00 0.00 0.00 67 1018.9
20240221191538 23 183 1.6 29.0 0.00 0.00 0.00 68 1019.1
20240221190036 23 212 0.0 29.0 0.00 0.00 0.00 68 1019.5
20240221184533 23 130 3.2 30.6 0.00 0.00 0.00 67 1019.7
20240221183037 23 169 3.2 29.0 0.00 0.00 0.00 67 1020.1
20240221181530 23 149 6.4 27.4 0.00 0.00 0.00 67 1020.4
20240221180024 23 171 3.2 24.1 0.00 0.00 0.00 68 1020.7
20240221174521 23 168 6.4 30.6 0.00 0.00 0.00 68 1020.9
20240221173019 22 143 4.8 30.6 0.00 0.00 0.00 70 1021.0
20240221171518 22 176 8.0 32.2 0.00 0.00 0.00 69 1021.1
20240221170029 22 173 14.5 35.4 0.00 0.00 0.00 70 1021.3
20240221164513 22 181 12.9 33.8 0.00 0.00 0.00 71 1021.2
20240221163013 22 214 14.5 38.6 0.00 0.00 0.00 71 1021.3
20240221161522 21 167 11.3 32.2 0.00 0.00 0.00 73 1021.4
20240221160007 21 154 3.2 30.6 0.00 0.00 0.00 74 1021.5
20240221154505 21 204 8.0 24.1 0.00 0.00 0.00 76 1021.6
20240221153002 20 176 0.0 17.7 0.00 0.00 0.00 78 1021.6
20240221151600 20 127 3.2 17.7 0.00 0.00 0.00 80 1021.7
20240221150056 19 164 0.0 16.1 0.00 0.00 0.00 82 1021.7
20240221144551 18 169 0.0 6.4 0.00 0.00 0.00 85 1021.7
20240221143051 17 174 0.0 3.2 0.00 0.00 0.00 89 1021.6
20240221141552 17 151 0.0 1.6 0.00 0.00 0.00 91 1021.6
20240221140042 16 159 0.0 0.0 0.00 0.00 0.00 92 1021.5
20240221134538 16 177 0.0 0.0 0.00 0.00 0.00 93 1021.4
20240221133036 16 151 0.0 0.0 0.00 0.00 0.00 93 1021.4
20240221131544 15 160 0.0 0.0 0.00 0.00 0.00 93 1021.3
20240221130032 15 146 0.0 0.0 0.00 0.00 0.00 93 1021.3
20240221124538 15 162 0.0 0.0 0.00 0.00 0.00 93 1021.2
20240221123031 15 168 0.0 0.0 0.00 0.00 0.00 93 1021.2
20240221121529 15 148 0.0 0.0 0.00 0.00 0.00 93 1021.2
20240221120030 15 155 0.0 0.0 0.00 0.00 0.00 93 1021.1